Time;durP1;ratioP1;P1;durP2;ratioP2;P2;SDS_P1;SDS_P2;PMS_P1;PMS_P2;Temp;Humidity;BMP_temperature;BMP_pressure;BME280_temperature;BME280_humidity;BME280_pressure;Samples;Min_cycle;Max_cycle;Signal;HPM_P1;HPM_P2
2023/10/30 00:00:46;;;;;;;9.32;3.92;;;;;;;12.53;49.89;95386.66;5084322;28;20564;-81
2023/10/30 00:03:14;;;;;;;5.75;3.10;;;;;;;12.45;50.05;95380.59;5067767;28;20028;-83
2023/10/30 00:05:39;;;;;;;5.20;3.50;;;;;;;12.37;49.98;95384.00;5068105;28;20025;-80
2023/10/30 00:08:06;;;;;;;6.25;3.10;;;;;;;12.30;49.91;95387.72;5067453;28;20098;-82
2023/10/30 00:10:33;;;;;;;6.93;3.30;;;;;;;12.22;50.48;95375.38;5067897;28;20021;-81
2023/10/30 00:12:59;;;;;;;5.82;2.63;;;;;;;12.33;50.21;95392.38;5066507;28;20024;-81
2023/10/30 00:15:25;;;;;;;6.50;3.08;;;;;;;12.24;50.54;95383.97;5067601;28;20502;-81
2023/10/30 00:17:51;;;;;;;5.53;3.22;;;;;;;12.34;50.04;95382.13;5069662;28;20064;-80
2023/10/30 00:20:18;;;;;;;5.65;3.47;;;;;;;12.31;50.29;95383.75;5088989;28;20081;-80
2023/10/30 00:22:44;;;;;;;10.38;3.75;;;;;;;12.33;50.34;95383.31;5088708;28;20021;-81
2023/10/30 00:25:09;;;;;;;7.97;3.58;;;;;;;12.29;50.57;95393.69;5053856;28;20016;-81
2023/10/30 00:27:35;;;;;;;6.88;3.50;;;;;;;12.26;50.41;95378.00;5087602;28;20413;-82
2023/10/30 00:30:00;;;;;;;6.45;3.00;;;;;;;12.25;50.79;95388.25;5087042;28;20116;-81
2023/10/30 00:32:26;;;;;;;7.00;3.28;;;;;;;12.21;50.66;95373.78;5053999;28;20024;-81
2023/10/30 00:34:51;;;;;;;5.90;2.70;;;;;;;12.16;50.96;95374.34;5053318;28;20035;-81
2023/10/30 00:37:16;;;;;;;10.80;3.60;;;;;;;12.15;50.75;95373.56;5070020;28;20118;-81
2023/10/30 00:39:43;;;;;;;5.70;2.83;;;;;;;12.15;50.79;95381.06;5068847;28;20036;-81
2023/10/30 00:42:12;;;;;;;7.15;3.03;;;;;;;12.11;50.73;95372.91;5070205;28;20032;-81
2023/10/30 00:44:38;;;;;;;4.97;2.78;;;;;;;12.11;50.83;95378.41;5104310;28;20032;-81
2023/10/30 00:47:05;;;;;;;5.13;2.97;;;;;;;12.08;50.88;95381.25;5069824;28;20401;-81
2023/10/30 00:49:31;;;;;;;5.13;2.90;;;;;;;12.02;50.99;95388.50;5053760;28;20067;-81
2023/10/30 00:51:56;;;;;;;8.18;3.03;;;;;;;11.98;51.23;95382.31;5069226;28;20059;-81
2023/10/30 00:54:23;;;;;;;6.35;3.05;;;;;;;11.96;51.20;95372.50;5069959;28;20024;-81
2023/10/30 00:56:50;;;;;;;5.38;2.95;;;;;;;11.86;51.28;95370.03;5068773;28;20075;-81
2023/10/30 00:59:16;;;;;;;5.40;3.17;;;;;;;11.86;51.35;95390.09;5053231;28;20024;-81
2023/10/30 01:01:43;;;;;;;5.80;3.28;;;;;;;11.85;51.54;95385.03;5053280;28;20080;-82
2023/10/30 01:04:09;;;;;;;5.53;3.15;;;;;;;11.85;51.52;95390.53;5069697;28;20070;-81
2023/10/30 01:06:35;;;;;;;6.43;2.92;;;;;;;11.79;51.47;95376.47;5053449;28;20136;-80
2023/10/30 01:09:01;;;;;;;6.55;3.28;;;;;;;11.81;51.76;95376.03;5069507;28;20024;-80
2023/10/30 01:11:32;;;;;;;5.18;3.05;;;;;;;11.75;51.73;95370.28;5052916;28;20192;-81
2023/10/30 01:13:58;;;;;;;7.70;3.38;;;;;;;11.78;51.88;95368.66;5086804;28;20056;-82
2023/10/30 01:16:26;;;;;;;7.25;3.20;;;;;;;11.78;51.80;95363.16;5069236;28;20085;-83
2023/10/30 01:18:53;;;;;;;6.35;2.90;;;;;;;11.62;52.10;95361.97;5052819;28;20136;-81
2023/10/30 01:21:20;;;;;;;6.35;2.88;;;;;;;11.70;52.01;95371.63;5069541;28;20039;-81
2023/10/30 01:23:45;;;;;;;5.05;2.92;;;;;;;11.69;52.00;95372.78;5069870;28;20024;-82
2023/10/30 01:26:11;;;;;;;7.45;3.65;;;;;;;11.62;51.89;95366.72;5069127;28;20020;-82
2023/10/30 01:28:36;;;;;;;7.43;3.15;;;;;;;11.60;52.11;95364.41;5069503;28;20024;-81
2023/10/30 01:31:04;;;;;;;6.68;3.03;;;;;;;11.68;51.99;95370.47;5068718;28;20100;-81
2023/10/30 01:33:31;;;;;;;5.80;2.60;;;;;;;11.62;52.18;95369.47;5069668;28;20106;-80
2023/10/30 01:35:56;;;;;;;7.90;2.80;;;;;;;11.61;52.10;95376.19;5051924;28;20032;-81
2023/10/30 01:38:22;;;;;;;6.88;2.75;;;;;;;11.59;52.07;95367.59;5068256;28;20418;-82
2023/10/30 01:40:49;;;;;;;4.78;2.67;;;;;;;11.59;52.21;95368.38;5069038;28;20029;-81
2023/10/30 01:43:15;;;;;;;6.65;3.20;;;;;;;11.54;52.40;95371.63;5085808;28;20051;-82
2023/10/30 01:45:47;;;;;;;4.53;2.80;;;;;;;11.52;52.38;95365.00;5052625;28;20498;-82
2023/10/30 01:48:14;;;;;;;4.20;2.50;;;;;;;11.51;52.48;95361.47;5069601;28;20447;-82
2023/10/30 01:50:40;;;;;;;8.80;2.83;;;;;;;11.46;52.67;95369.47;5086151;28;20028;-82
2023/10/30 01:53:08;;;;;;;5.88;2.63;;;;;;;11.37;52.41;95354.38;5068087;28;20028;-81
2023/10/30 01:55:37;;;;;;;5.65;2.53;;;;;;;11.39;52.71;95367.69;5068783;28;20114;-82
2023/10/30 01:58:04;;;;;;;5.28;2.65;;;;;;;11.31;53.08;95361.59;5069202;28;20134;-81
2023/10/30 02:00:30;;;;;;;5.65;3.22;;;;;;;11.33;52.94;95372.16;5068934;28;20020;-82
2023/10/30 02:02:58;;;;;;;5.43;2.45;;;;;;;11.35;53.16;95369.75;5068459;28;20041;-82
2023/10/30 02:05:24;;;;;;;7.32;2.72;;;;;;;11.28;53.32;95381.72;5068327;28;20024;-82
2023/10/30 02:07:49;;;;;;;6.50;2.97;;;;;;;11.20;53.33;95374.06;5068644;28;20040;-82
2023/10/30 02:10:15;;;;;;;6.38;2.80;;;;;;;11.21;53.27;95373.63;5051225;28;20088;-81
2023/10/30 02:12:42;;;;;;;7.05;2.90;;;;;;;11.21;53.29;95378.38;5085065;28;20414;-82
2023/10/30 02:15:08;;;;;;;10.50;3.35;;;;;;;11.18;53.21;95374.47;5068372;28;20410;-81
2023/10/30 02:17:34;;;;;;;6.97;2.90;;;;;;;11.24;53.35;95381.03;5068243;28;20031;-80
2023/10/30 02:20:00;;;;;;;6.95;2.90;;;;;;;11.27;53.17;95377.41;5068531;28;20441;-81
2023/10/30 02:22:25;;;;;;;4.55;2.45;;;;;;;11.17;53.34;95392.19;5067675;28;20411;-81
2023/10/30 02:24:52;;;;;;;5.63;2.60;;;;;;;11.19;53.54;95389.81;5068753;28;20513;-81
2023/10/30 02:27:18;;;;;;;6.35;3.75;;;;;;;11.18;53.50;95393.75;5067737;28;20038;-81
2023/10/30 02:29:44;;;;;;;5.93;2.40;;;;;;;11.13;53.70;95386.03;5085257;28;20035;-82
2023/10/30 02:32:09;;;;;;;5.35;2.70;;;;;;;11.08;53.95;95379.06;5067768;28;20036;-82
2023/10/30 02:34:34;;;;;;;3.63;2.65;;;;;;;11.05;53.84;95370.88;5051495;28;20111;-82
2023/10/30 02:37:02;;;;;;;5.55;3.05;;;;;;;11.02;54.03;95377.25;5068342;28;20119;-82
2023/10/30 02:39:32;;;;;;;5.30;2.92;;;;;;;10.98;53.93;95376.56;5050836;28;20036;-82
2023/10/30 02:41:59;;;;;;;5.90;2.40;;;;;;;10.93;53.73;95374.31;5069118;28;20024;-81
2023/10/30 02:44:25;;;;;;;5.53;2.42;;;;;;;10.85;53.88;95377.22;5067537;28;20024;-83
2023/10/30 02:46:51;;;;;;;6.03;2.90;;;;;;;10.84;54.18;95372.94;5068428;28;20024;-82
2023/10/30 02:49:17;;;;;;;5.63;2.72;;;;;;;10.88;53.71;95381.84;5067319;28;20052;-82
2023/10/30 02:51:42;;;;;;;4.57;2.20;;;;;;;10.85;54.05;95381.97;5085365;28;20536;-82
2023/10/30 02:54:08;;;;;;;4.95;2.70;;;;;;;10.79;54.39;95378.16;5067793;28;20099;-82
2023/10/30 02:56:34;;;;;;;3.53;2.30;;;;;;;10.80;54.14;95376.97;5051058;28;20036;-81
2023/10/30 02:58:59;;;;;;;5.30;2.47;;;;;;;10.85;53.90;95385.47;5051266;28;20028;-81
2023/10/30 03:01:26;;;;;;;5.32;2.45;;;;;;;10.75;54.13;95377.47;5050722;28;20028;-81
2023/10/30 03:03:51;;;;;;;6.43;2.90;;;;;;;10.74;54.08;95382.19;5068036;28;20036;-82
2023/10/30 03:06:18;;;;;;;8.70;2.88;;;;;;;10.74;54.24;95384.94;5067413;28;20024;-81
2023/10/30 03:08:44;;;;;;;4.70;2.60;;;;;;;10.66;54.26;95369.03;5051351;28;20028;-82
2023/10/30 03:11:16;;;;;;;7.15;3.00;;;;;;;10.69;54.45;95385.44;5067217;28;20487;-81
2023/10/30 03:13:41;;;;;;;4.53;2.65;;;;;;;10.67;54.51;95387.84;5085781;28;20563;-81
2023/10/30 03:16:07;;;;;;;8.27;2.97;;;;;;;10.69;54.70;95382.69;5051958;28;20027;-82
2023/10/30 03:18:37;;;;;;;4.80;2.53;;;;;;;10.68;54.67;95385.88;5063424;28;20059;-82
2023/10/30 03:21:04;;;;;;;4.57;2.72;;;;;;;10.61;54.67;95392.31;5048654;28;20094;-83
2023/10/30 03:23:29;;;;;;;5.63;2.70;;;;;;;10.59;54.93;95389.19;5064140;28;20024;-82
2023/10/30 03:25:55;;;;;;;7.15;3.25;;;;;;;10.60;55.16;95401.75;5064946;28;20033;-82
2023/10/30 03:28:21;;;;;;;6.82;2.97;;;;;;;10.58;55.03;95393.16;5064194;28;20032;-82
2023/10/30 03:30:46;;;;;;;5.97;3.25;;;;;;;10.53;55.04;95386.16;5081110;28;20025;-81
2023/10/30 03:33:14;;;;;;;8.20;3.38;;;;;;;10.54;55.21;95398.72;5064157;28;20016;-81
2023/10/30 03:35:40;;;;;;;6.55;3.78;;;;;;;10.52;55.33;95408.59;5063838;28;20040;-81
2023/10/30 03:38:06;;;;;;;8.68;3.90;;;;;;;10.47;55.57;95400.84;5064454;28;20039;-82
2023/10/30 03:40:32;;;;;;;6.88;3.58;;;;;;;10.48;55.43;95414.16;5065196;28;20024;-81
2023/10/30 03:42:58;;;;;;;7.38;3.42;;;;;;;10.43;55.41;95400.91;5047228;28;20021;-81
2023/10/30 03:45:24;;;;;;;10.55;3.80;;;;;;;10.48;55.27;95410.63;5063609;28;20525;-81
2023/10/30 03:47:49;;;;;;;6.88;3.55;;;;;;;10.53;54.89;95401.91;5063875;28;20028;-80
2023/10/30 03:50:16;;;;;;;6.20;3.50;;;;;;;10.48;55.24;95402.41;5046961;28;20032;-82
2023/10/30 03:52:43;;;;;;;7.90;3.40;;;;;;;10.37;55.11;95389.63;5063920;28;20048;-82
2023/10/30 03:55:09;;;;;;;6.72;3.58;;;;;;;10.42;55.33;95385.63;5064145;28;20119;-82
2023/10/30 03:57:34;;;;;;;9.23;3.42;;;;;;;10.39;55.09;95397.47;5063766;28;20115;-82
2023/10/30 04:00:03;;;;;;;6.57;3.30;;;;;;;10.31;55.29;95396.06;5063969;28;20028;-82
2023/10/30 04:02:29;;;;;;;8.27;3.75;;;;;;;10.24;55.45;95396.22;5079878;28;20043;-81
2023/10/30 04:04:55;;;;;;;9.05;3.13;;;;;;;10.27;55.29;95398.91;5063660;28;20067;-80
2023/10/30 04:07:20;;;;;;;5.80;3.20;;;;;;;10.23;55.38;95400.13;5063347;28;20096;-82
2023/10/30 04:09:46;;;;;;;9.80;3.47;;;;;;;10.21;55.47;95392.31;5063785;28;20441;-82
2023/10/30 04:12:12;;;;;;;8.10;3.00;;;;;;;10.19;55.65;95405.69;5063548;28;20364;-82
2023/10/30 04:14:38;;;;;;;6.93;3.63;;;;;;;10.23;55.50;95409.19;5064059;28;20095;-82
2023/10/30 04:17:04;;;;;;;7.57;3.40;;;;;;;10.22;55.42;95404.84;5080662;28;20028;-81
2023/10/30 04:19:30;;;;;;;10.23;3.80;;;;;;;10.20;55.82;95401.75;5063277;28;20076;-82
2023/10/30 04:21:55;;;;;;;5.40;2.78;;;;;;;10.14;55.94;95397.16;5080651;28;20416;-81
2023/10/30 04:24:21;;;;;;;7.75;3.50;;;;;;;10.13;55.61;95393.66;5046763;28;20021;-84
2023/10/30 04:26:46;;;;;;;6.93;3.90;;;;;;;10.11;55.82;95393.31;5068507;28;20037;-85
2023/10/30 04:29:12;;;;;;;8.68;3.42;;;;;;;10.06;56.18;95396.53;5051207;28;20610;-86
2023/10/30 04:31:37;;;;;;;8.35;3.65;;;;;;;10.05;56.19;95395.78;5051793;28;20043;-87
2023/10/30 04:34:03;;;;;;;9.65;3.97;;;;;;;10.06;56.29;95396.53;5068252;28;20128;-87
2023/10/30 04:36:28;;;;;;;6.88;3.88;;;;;;;10.06;56.44;95394.56;5052594;28;20166;-87
2023/10/30 04:38:54;;;;;;;9.32;4.63;;;;;;;10.02;56.31;95396.59;5052257;28;20425;-82
2023/10/30 04:41:19;;;;;;;7.15;4.40;;;;;;;10.03;56.40;95400.13;5084573;28;20029;-86
2023/10/30 04:43:45;;;;;;;8.85;4.57;;;;;;;10.01;56.40;95397.03;5051645;28;20024;-86
2023/10/30 04:46:10;;;;;;;8.45;4.00;;;;;;;10.06;56.31;95394.56;5050740;28;20042;-86
2023/10/30 04:48:36;;;;;;;6.38;3.75;;;;;;;10.05;56.23;95398.50;5068620;28;20020;-86
2023/10/30 04:51:01;;;;;;;10.80;4.30;;;;;;;10.01;56.52;95399.78;5069592;28;20020;-87
2023/10/30 04:53:31;;;;;;;7.28;4.20;;;;;;;9.98;56.57;95390.41;5068726;28;20533;-87
2023/10/30 04:55:57;;;;;;;11.27;4.05;;;;;;;9.93;56.69;95392.88;5085307;28;20024;-85
2023/10/30 04:58:22;;;;;;;14.73;4.97;;;;;;;9.97;56.54;95399.84;5066407;28;20033;-82
2023/10/30 05:00:48;;;;;;;9.77;4.45;;;;;;;9.97;56.67;95404.56;5067095;28;20039;-82
2023/10/30 05:03:14;;;;;;;11.18;4.30;;;;;;;9.94;56.50;95408.94;5066217;28;20120;-82
2023/10/30 05:05:39;;;;;;;8.57;4.47;;;;;;;9.96;56.49;95405.75;5050224;28;20024;-83
2023/10/30 05:08:05;;;;;;;13.85;5.13;;;;;;;9.90;56.70;95401.94;5066220;28;20119;-83
2023/10/30 05:10:31;;;;;;;6.55;4.88;;;;;;;9.91;56.58;95406.25;5066957;28;20135;-83
2023/10/30 05:12:57;;;;;;;11.30;5.32;;;;;;;9.93;56.55;95406.59;5066334;28;20028;-85
2023/10/30 05:15:23;;;;;;;11.30;4.95;;;;;;;9.91;56.77;95412.50;5083262;28;20048;-83
2023/10/30 05:17:48;;;;;;;8.73;4.75;;;;;;;9.93;56.76;95423.09;5066950;28;20039;-83
2023/10/30 05:20:13;;;;;;;9.85;5.00;;;;;;;9.91;56.74;95417.22;5086019;28;20023;-83
2023/10/30 05:22:40;;;;;;;10.73;5.10;;;;;;;9.96;56.69;95428.50;5087109;28;20027;-83
2023/10/30 05:25:06;;;;;;;13.70;5.53;;;;;;;9.89;56.94;95423.16;5086074;28;20031;-82
2023/10/30 05:27:32;;;;;;;9.00;4.90;;;;;;;9.90;56.86;95438.41;5086752;28;20348;-81
2023/10/30 05:29:58;;;;;;;11.25;5.38;;;;;;;9.85;56.87;95420.44;5086595;28;20024;-84
2023/10/30 05:32:23;;;;;;;11.32;5.35;;;;;;;9.88;57.05;95438.06;5087158;28;20143;-84
2023/10/30 05:34:49;;;;;;;10.15;6.07;;;;;;;9.89;57.22;95434.13;5086969;28;20024;-84
2023/10/30 05:37:15;;;;;;;16.02;6.35;;;;;;;9.91;57.19;95439.19;5085571;28;20066;-81
2023/10/30 05:39:41;;;;;;;11.18;6.28;;;;;;;10.00;56.76;95442.19;5087877;28;20028;-85
2023/10/30 05:42:07;;;;;;;14.77;6.70;;;;;;;10.04;56.96;95453.88;5087674;28;20028;-84
2023/10/30 05:44:33;;;;;;;14.63;8.32;;;;;;;10.08;56.71;95452.59;5053851;28;20043;-85
2023/10/30 05:46:58;;;;;;;17.42;8.00;;;;;;;9.99;57.02;95438.66;5087176;28;20518;-85
2023/10/30 05:49:29;;;;;;;17.98;7.30;;;;;;;10.09;56.86;95451.41;5072938;28;20059;-86
2023/10/30 05:51:55;;;;;;;19.85;8.00;;;;;;;10.13;56.68;95443.09;5070840;28;20020;-84
2023/10/30 05:54:22;;;;;;;15.82;8.02;;;;;;;10.14;56.64;95454.84;5085715;28;20030;-84
2023/10/30 05:56:48;;;;;;;14.00;8.02;;;;;;;10.14;56.99;95461.13;5070301;28;20020;-85
2023/10/30 05:59:17;;;;;;;15.63;7.47;;;;;;;10.17;56.77;95459.53;5069661;28;20082;-85
2023/10/30 06:01:42;;;;;;;16.05;8.10;;;;;;;10.22;56.86;95464.53;5086710;28;20024;-82
2023/10/30 06:04:07;;;;;;;12.60;7.05;;;;;;;10.24;56.71;95464.91;5084686;28;20027;-82
2023/10/30 06:06:33;;;;;;;10.52;6.78;;;;;;;10.25;56.41;95458.22;5069114;28;20093;-88
2023/10/30 06:08:59;;;;;;;12.23;6.68;;;;;;;10.28;56.54;95465.63;5068906;28;20020;-83
2023/10/30 06:11:25;;;;;;;14.95;6.10;;;;;;;10.35;56.35;95460.75;5068781;28;20024;-82
2023/10/30 06:13:50;;;;;;;17.08;6.93;;;;;;;10.39;56.36;95459.94;5085356;28;20093;-81
2023/10/30 06:16:20;;;;;;;19.70;7.53;;;;;;;10.50;56.28;95472.25;5084926;28;20024;-82
2023/10/30 06:18:45;;;;;;;10.70;6.47;;;;;;;10.52;55.96;95472.59;5086015;28;20399;-82
2023/10/30 06:21:15;;;;;;;12.07;6.32;;;;;;;10.55;55.91;95469.00;5084728;28;20059;-81
2023/10/30 06:23:40;;;;;;;10.68;5.93;;;;;;;10.60;56.11;95473.22;5085362;28;20024;-82
2023/10/30 06:26:10;;;;;;;12.85;7.30;;;;;;;10.68;55.99;95471.88;5085032;28;20509;-82
2023/10/30 06:28:39;;;;;;;13.13;7.03;;;;;;;10.74;55.88;95480.41;5085104;28;20406;-81
2023/10/30 06:31:15;;;;;;;13.80;7.07;;;;;;;10.82;55.78;95479.06;5085757;28;20458;-81
2023/10/30 06:33:41;;;;;;;15.38;7.10;;;;;;;10.87;55.66;95484.06;5084832;28;20031;-81
2023/10/30 06:36:06;;;;;;;12.43;6.78;;;;;;;10.93;55.64;95482.34;5068379;28;20055;-81
2023/10/30 06:38:33;;;;;;;12.50;6.70;;;;;;;10.97;55.66;95483.06;5101349;28;20123;-80
2023/10/30 06:40:58;;;;;;;14.43;6.18;;;;;;;11.05;55.56;95478.16;5085262;28;20028;-82
2023/10/30 06:43:25;;;;;;;12.80;6.32;;;;;;;11.15;55.48;95477.94;5084508;28;20030;-82
2023/10/30 06:46:04;;;;;;;13.15;6.70;;;;;;;11.26;55.29;95487.94;5084936;28;20054;-82
2023/10/30 06:48:29;;;;;;;12.80;6.38;;;;;;;11.30;55.22;95472.13;5067825;28;20042;-81
2023/10/30 06:50:55;;;;;;;17.30;6.03;;;;;;;11.41;55.00;95476.19;5084131;28;20032;-81
2023/10/30 06:53:21;;;;;;;11.25;5.82;;;;;;;11.55;54.89;95472.31;5084666;28;20099;-82
2023/10/30 06:55:47;;;;;;;10.98;5.88;;;;;;;11.60;54.91;95474.53;5069191;28;20048;-79
2023/10/30 06:58:12;;;;;;;13.27;5.85;;;;;;;11.66;54.89;95472.03;5047684;28;20513;-83
2023/10/30 07:00:38;;;;;;;11.23;5.55;;;;;;;11.76;54.67;95467.50;5047247;28;20074;-82
2023/10/30 07:03:03;;;;;;;14.55;6.25;;;;;;;11.88;54.39;95464.84;5048000;28;20036;-79
2023/10/30 07:05:29;;;;;;;11.73;5.88;;;;;;;11.93;54.48;95466.28;5065796;28;20044;-85
2023/10/30 07:07:55;;;;;;;11.93;5.90;;;;;;;12.00;54.39;95468.09;5064451;28;20129;-80
2023/10/30 07:10:21;;;;;;;13.98;6.97;;;;;;;12.19;54.07;95480.97;5064471;28;20475;-80
2023/10/30 07:12:47;;;;;;;16.38;8.35;;;;;;;12.28;54.07;95483.88;5030298;28;20039;-79
2023/10/30 07:15:12;;;;;;;14.55;8.13;;;;;;;12.42;53.51;95483.47;5047628;28;20021;-80
2023/10/30 07:17:37;;;;;;;15.98;9.32;;;;;;;12.58;53.09;95476.38;5046679;28;20024;-80
2023/10/30 07:20:03;;;;;;;24.10;11.18;;;;;;;12.71;52.65;95485.44;5045657;28;20040;-78
2023/10/30 07:22:29;;;;;;;22.63;10.02;;;;;;;12.89;52.18;95482.19;5043786;28;20032;-79
2023/10/30 07:24:56;;;;;;;19.85;11.00;;;;;;;13.07;51.92;95476.13;5044320;28;20044;-79
2023/10/30 07:27:22;;;;;;;21.20;9.60;;;;;;;13.27;51.58;95485.78;5044217;28;20086;-79
2023/10/30 07:29:47;;;;;;;17.13;10.85;;;;;;;13.43;51.31;95476.63;5043772;28;20458;-79
2023/10/30 07:32:13;;;;;;;16.10;9.70;;;;;;;13.70;50.48;95475.38;5044101;28;20028;-79
2023/10/30 07:34:40;;;;;;;15.60;9.50;;;;;;;13.94;50.38;95481.34;5026494;28;20119;-79
2023/10/30 07:37:05;;;;;;;15.38;8.93;;;;;;;14.20;49.48;95471.72;5027588;28;20021;-80
2023/10/30 07:39:32;;;;;;;13.27;8.75;;;;;;;14.53;49.02;95477.72;5043328;28;20029;-79
2023/10/30 07:41:57;;;;;;;14.40;8.18;;;;;;;14.87;47.98;95481.66;5027588;28;20102;-79
2023/10/30 07:44:22;;;;;;;12.38;7.00;;;;;;;15.23;47.04;95477.53;5027689;28;20431;-80
2023/10/30 07:46:49;;;;;;;11.93;7.38;;;;;;;15.58;46.20;95472.59;5043714;28;20021;-80
2023/10/30 07:49:15;;;;;;;11.55;7.30;;;;;;;15.95;45.51;95475.53;5033877;28;20029;-79
2023/10/30 07:51:40;;;;;;;11.52;7.28;;;;;;;16.29;44.54;95474.50;5063063;28;20028;-79
2023/10/30 07:54:06;;;;;;;12.70;6.97;;;;;;;16.68;43.42;95470.78;5063970;28;20025;-79
2023/10/30 07:56:31;;;;;;;15.98;6.65;;;;;;;17.19;42.76;95480.44;5062775;28;20430;-80
2023/10/30 07:58:57;;;;;;;12.13;7.03;;;;;;;17.77;41.29;95474.53;5063568;28;20041;-78
2023/10/30 08:01:24;;;;;;;9.73;6.50;;;;;;;18.56;39.80;95476.94;5066762;28;20021;-78
2023/10/30 08:03:49;;;;;;;13.70;6.78;;;;;;;19.40;37.93;95469.38;5050554;28;20040;-79
2023/10/30 08:06:15;;;;;;;10.77;5.82;;;;;;;20.42;35.66;95467.56;5067898;28;20025;-80
2023/10/30 08:08:40;;;;;;;10.45;6.10;;;;;;;21.57;33.74;95474.63;5067086;28;20025;-80
2023/10/30 08:11:06;;;;;;;10.23;6.13;;;;;;;22.48;31.86;95463.47;5067601;28;20021;-79
2023/10/30 08:13:31;;;;;;;11.20;6.10;;;;;;;23.37;30.84;95459.41;5066820;28;20029;-80
2023/10/30 08:15:57;;;;;;;12.52;5.57;;;;;;;24.22;29.37;95460.88;5060095;28;20581;-80
2023/10/30 08:18:22;;;;;;;13.43;5.93;;;;;;;25.08;27.95;95455.94;5057447;28;20490;-80
2023/10/30 08:20:48;;;;;;;12.10;5.85;;;;;;;25.77;27.01;95454.94;5070675;28;20946;-80
2023/10/30 08:23:15;;;;;;;11.70;6.13;;;;;;;26.11;26.01;95454.63;5070513;28;20034;-81
2023/10/30 08:25:41;;;;;;;10.77;6.20;;;;;;;26.57;25.24;95453.63;5086997;28;20016;-79
2023/10/30 08:28:06;;;;;;;11.10;5.80;;;;;;;27.03;25.06;95457.38;5053990;28;20027;-80
2023/10/30 08:30:32;;;;;;;9.15;6.25;;;;;;;27.47;24.31;95460.88;5069948;28;20449;-83
2023/10/30 08:32:57;;;;;;;12.20;6.68;;;;;;;28.20;23.59;95457.59;5070893;28;20024;-79
2023/10/30 08:35:23;;;;;;;16.75;5.50;;;;;;;28.44;23.35;95450.25;5069834;28;20034;-81
2023/10/30 08:37:48;;;;;;;13.73;5.72;;;;;;;28.96;22.39;95460.78;5070535;28;20123;-82
2023/10/30 08:40:15;;;;;;;11.57;5.32;;;;;;;29.51;21.68;95454.41;5088250;28;20506;-81
2023/10/30 08:42:43;;;;;;;10.48;5.47;;;;;;;29.98;21.52;95462.03;5070185;28;20085;-81
2023/10/30 08:45:13;;;;;;;12.23;5.25;;;;;;;30.33;21.04;95452.88;5071394;28;20089;-80
2023/10/30 08:47:39;;;;;;;8.57;4.72;;;;;;;30.81;20.63;95459.06;5069896;28;20024;-80
2023/10/30 08:50:08;;;;;;;10.25;4.70;;;;;;;31.46;20.02;95458.94;5070452;28;20034;-80
2023/10/30 08:52:34;;;;;;;8.60;4.85;;;;;;;32.10;19.57;95466.44;5087781;28;20019;-80
2023/10/30 08:54:59;;;;;;;12.10;5.38;;;;;;;32.56;18.67;95457.88;5069743;28;20030;-80
2023/10/30 08:57:24;;;;;;;17.25;5.72;;;;;;;32.95;18.46;95453.63;5069392;28;20410;-80
2023/10/30 08:59:50;;;;;;;15.30;5.47;;;;;;;33.37;18.00;95446.59;5086330;28;20058;-81
2023/10/30 09:02:16;;;;;;;15.48;5.03;;;;;;;34.29;17.57;95450.34;5069831;28;20024;-80
2023/10/30 09:04:41;;;;;;;14.90;5.68;;;;;;;34.55;17.37;95449.00;5069846;28;20387;-81
2023/10/30 09:07:06;;;;;;;8.20;5.28;;;;;;;35.09;16.02;95443.47;5069983;28;20152;-76
2023/10/30 09:09:32;;;;;;;11.93;4.82;;;;;;;35.38;15.64;95443.69;5069468;28;20020;-78
2023/10/30 09:11:58;;;;;;;10.38;4.78;;;;;;;35.64;15.66;95436.47;5069086;28;20351;-77
2023/10/30 09:14:23;;;;;;;8.55;4.30;;;;;;;36.32;15.22;95445.34;5087316;28;20016;-77
2023/10/30 09:16:49;;;;;;;9.02;4.40;;;;;;;37.02;15.10;95437.00;5087787;28;20040;-77
2023/10/30 09:19:14;;;;;;;7.30;4.20;;;;;;;37.52;14.70;95424.91;5052475;28;20487;-77
2023/10/30 09:21:39;;;;;;;9.05;4.10;;;;;;;38.20;14.24;95425.41;5087831;28;20089;-77
2023/10/30 09:24:05;;;;;;;8.73;4.07;;;;;;;38.75;13.96;95420.56;5088248;28;20028;-77
2023/10/30 09:26:31;;;;;;;9.25;4.15;;;;;;;39.30;13.22;95415.59;5087940;28;20107;-79
2023/10/30 09:28:56;;;;;;;12.00;5.05;;;;;;;39.65;13.04;95414.94;5087895;28;20085;-78
2023/10/30 09:31:21;;;;;;;9.30;4.60;;;;;;;40.06;12.73;95417.50;5068866;28;20471;-76
2023/10/30 09:33:48;;;;;;;8.30;4.20;;;;;;;40.51;12.77;95414.50;5069527;28;20035;-79
2023/10/30 09:36:13;;;;;;;8.25;4.40;;;;;;;40.88;12.38;95418.13;5087096;28;20547;-79
2023/10/30 09:38:41;;;;;;;8.48;4.13;;;;;;;41.26;12.61;95412.38;5069507;28;20111;-78
2023/10/30 09:41:07;;;;;;;10.98;4.43;;;;;;;41.62;12.25;95410.81;5069158;28;20084;-78
2023/10/30 09:43:34;;;;;;;8.55;4.57;;;;;;;41.83;12.34;95399.03;5068991;28;20027;-77
2023/10/30 09:46:02;;;;;;;9.18;4.45;;;;;;;42.20;11.71;95394.50;5087653;28;20086;-77
2023/10/30 09:48:28;;;;;;;9.25;5.10;;;;;;;42.26;11.73;95395.56;5102879;28;20510;-77
2023/10/30 09:50:54;;;;;;;10.55;4.45;;;;;;;42.46;11.69;95380.69;5069054;28;20024;-78
2023/10/30 09:53:20;;;;;;;11.18;4.15;;;;;;;42.26;11.62;95381.13;5068574;28;20022;-76
2023/10/30 09:55:47;;;;;;;8.65;4.10;;;;;;;42.46;11.84;95377.81;5087113;28;20024;-78
2023/10/30 09:58:13;;;;;;;11.18;4.10;;;;;;;42.75;11.68;95365.56;5051659;28;20882;-78
2023/10/30 10:00:38;;;;;;;7.93;4.07;;;;;;;43.05;11.41;95369.25;5068851;28;20024;-75
2023/10/30 10:03:07;;;;;;;7.40;4.70;;;;;;;43.41;11.39;95371.03;5087166;28;20020;-76
2023/10/30 10:05:32;;;;;;;9.45;4.22;;;;;;;43.66;11.16;95358.47;5052047;28;20028;-76
2023/10/30 10:07:58;;;;;;;8.32;3.83;;;;;;;43.73;10.85;95366.03;5068769;28;20039;-77
2023/10/30 10:10:24;;;;;;;8.88;3.78;;;;;;;44.11;10.74;95354.00;5068330;28;20478;-77
2023/10/30 10:12:50;;;;;;;5.60;3.20;;;;;;;44.08;11.39;95347.38;5068790;28;20020;-76
2023/10/30 10:15:17;;;;;;;9.80;3.70;;;;;;;44.32;10.74;95339.03;5068157;28;20042;-77
2023/10/30 10:17:45;;;;;;;9.95;3.70;;;;;;;44.76;10.07;95333.69;5068702;28;20039;-77
2023/10/30 10:20:11;;;;;;;9.57;3.55;;;;;;;44.95;9.90;95338.81;5068412;28;20528;-76
2023/10/30 10:22:36;;;;;;;6.75;3.10;;;;;;;45.09;10.09;95330.00;5067524;28;20518;-76
2023/10/30 10:25:02;;;;;;;8.55;3.50;;;;;;;45.34;10.33;95330.97;5068648;28;20079;-76
2023/10/30 10:27:28;;;;;;;11.23;3.60;;;;;;;45.52;10.19;95328.78;5051288;28;20391;-76
2023/10/30 10:29:57;;;;;;;8.27;3.65;;;;;;;45.88;9.62;95326.53;5087111;28;20044;-77
2023/10/30 10:32:26;;;;;;;9.77;3.10;;;;;;;45.99;9.87;95328.41;5068033;28;20102;-76
2023/10/30 10:34:53;;;;;;;5.35;2.75;;;;;;;46.24;8.91;95329.34;5068363;28;20039;-76
2023/10/30 10:37:19;;;;;;;7.63;2.70;;;;;;;46.29;9.14;95313.53;5067844;28;20032;-79
2023/10/30 10:39:49;;;;;;;6.30;3.10;;;;;;;46.53;9.11;95320.22;5067701;28;20032;-81
2023/10/30 10:42:19;;;;;;;5.18;2.42;;;;;;;46.36;8.98;95323.97;5067978;28;20123;-77
2023/10/30 10:44:45;;;;;;;9.40;3.08;;;;;;;46.27;9.46;95322.16;5084409;28;20576;-77
2023/10/30 10:47:11;;;;;;;6.57;2.50;;;;;;;46.28;9.17;95309.13;5067948;28;20542;-76
2023/10/30 10:49:36;;;;;;;5.03;2.47;;;;;;;46.17;9.29;95304.38;5049933;28;20032;-80
2023/10/30 10:52:04;;;;;;;6.75;2.67;;;;;;;46.40;9.03;95303.75;5051070;28;20491;-78
2023/10/30 10:54:31;;;;;;;6.22;2.67;;;;;;;46.94;9.17;95298.34;5067101;28;20035;-81
2023/10/30 10:56:59;;;;;;;6.05;2.78;;;;;;;47.24;8.60;95294.91;5050741;28;20035;-76
2023/10/30 10:59:28;;;;;;;5.75;2.83;;;;;;;47.63;8.75;95297.63;5067823;28;20020;-80
2023/10/30 11:01:55;;;;;;;9.90;2.90;;;;;;;48.11;8.10;95288.81;5067314;28;20020;-77
2023/10/30 11:04:22;;;;;;;6.57;2.60;;;;;;;48.17;8.96;95284.59;5067563;28;20032;-77
2023/10/30 11:06:53;;;;;;;6.50;2.35;;;;;;;48.61;8.23;95285.81;5067166;28;20043;-78
2023/10/30 11:09:41;;;;;;;6.20;2.15;;;;;;;48.98;7.77;95280.91;5086018;28;20024;-77
2023/10/30 11:12:22;;;;;;;7.38;2.38;;;;;;;49.26;8.09;95268.44;5067274;28;20562;-77
2023/10/30 11:14:48;;;;;;;4.90;2.10;;;;;;;49.66;7.47;95275.19;5066973;28;20028;-76
2023/10/30 11:17:14;;;;;;;5.65;2.28;;;;;;;49.57;7.20;95266.97;5067880;28;20028;-76
2023/10/30 11:19:41;;;;;;;9.15;2.08;;;;;;;49.92;7.53;95259.69;5067057;28;20044;-77
2023/10/30 11:22:06;;;;;;;5.55;2.60;;;;;;;49.91;7.38;95255.28;5067766;28;20422;-74
2023/10/30 11:24:39;;;;;;;7.53;2.00;;;;;;;50.21;7.06;95252.97;5066757;28;20020;-75
2023/10/30 11:27:26;;;;;;;6.22;1.88;;;;;;;49.94;7.09;95256.78;5085686;28;20530;-74